createdAt,value
2023-01-18T00:00:29.848Z,-1.93
2023-01-18T00:05:31.850Z,-1.98
2023-01-18T00:10:33.614Z,-2.00
2023-01-18T00:15:35.649Z,-1.99
2023-01-18T00:20:42.138Z,-2.02
2023-01-18T00:25:43.912Z,-2.05
2023-01-18T00:30:50.405Z,-2.05
2023-01-18T00:36:00.243Z,-1.95
2023-01-18T00:41:02.252Z,-1.96
2023-01-18T00:46:16.723Z,-1.98
2023-01-18T00:51:22.611Z,-2.01
2023-01-18T00:56:24.515Z,-2.01
2023-01-18T01:01:28.476Z,-2.07
2023-01-18T01:06:47.149Z,-2.19
2023-01-18T01:12:10.836Z,-2.28
2023-01-18T01:17:32.572Z,-2.30
2023-01-18T01:22:55.748Z,-2.35
2023-01-18T01:27:57.756Z,-2.37
2023-01-18T01:33:01.853Z,-2.42
2023-01-18T01:38:08.131Z,-2.46
2023-01-18T01:43:13.508Z,-2.55
2023-01-18T01:48:17.683Z,-2.59
2023-01-18T01:53:19.416Z,-2.58
2023-01-18T01:58:23.724Z,-2.64
2023-01-18T02:03:30.204Z,-2.70
2023-01-18T02:08:53.303Z,-2.74
2023-01-18T02:14:20.847Z,-2.75
2023-01-18T02:19:42.788Z,-2.77
2023-01-18T02:25:11.396Z,-2.76
2023-01-18T02:30:30.712Z,-2.76
2023-01-18T02:35:51.645Z,-2.79
2023-01-18T02:41:52.431Z,-2.84
2023-01-18T02:46:54.142Z,-2.90
2023-01-18T02:52:02.884Z,-2.86
2023-01-18T02:57:12.646Z,-2.86
2023-01-18T03:02:23.117Z,-2.83
2023-01-18T03:07:32.275Z,-2.84
2023-01-18T03:12:49.095Z,-2.87
2023-01-18T03:18:11.213Z,-2.92
2023-01-18T03:23:37.902Z,-2.94
2023-01-18T03:29:03.624Z,-2.93
2023-01-18T03:34:14.148Z,-2.91
2023-01-18T03:39:25.066Z,-2.91
2023-01-18T03:44:36.088Z,-2.90
2023-01-18T03:49:45.211Z,-2.81
2023-01-18T03:55:26.677Z,-2.84
2023-01-18T04:00:31.396Z,-2.88
2023-01-18T04:05:35.660Z,-2.90
2023-01-18T04:10:40.543Z,-2.89
2023-01-18T04:15:51.723Z,-2.83
2023-01-18T04:20:56.535Z,-2.86
2023-01-18T04:26:00.632Z,-2.87
2023-01-18T04:31:06.022Z,-2.85
2023-01-18T04:36:08.554Z,-2.92
2023-01-18T04:41:10.231Z,-2.92
2023-01-18T04:46:11.971Z,-2.89
2023-01-18T04:51:15.994Z,-2.87
2023-01-18T04:56:17.912Z,-2.86
2023-01-18T05:01:20.309Z,-2.81
2023-01-18T05:06:24.626Z,-2.80
2023-01-18T05:11:28.579Z,-2.73
2023-01-18T05:16:35.397Z,-2.75
2023-01-18T05:21:41.916Z,-2.69
2023-01-18T05:26:45.946Z,-2.71
2023-01-18T05:31:52.408Z,-2.77
2023-01-18T05:36:54.108Z,-2.82
2023-01-18T05:42:00.181Z,-2.81
2023-01-18T05:47:02.119Z,-2.79
2023-01-18T05:52:05.979Z,-2.73
2023-01-18T05:57:13.025Z,-2.43
2023-01-18T06:02:18.276Z,-2.30
2023-01-18T06:07:20.007Z,-2.47
2023-01-18T06:12:21.846Z,-2.56
2023-01-18T06:17:23.552Z,-2.60
2023-01-18T06:22:29.589Z,-2.66
2023-01-18T06:27:37.648Z,-2.78
2023-01-18T06:32:42.832Z,-2.77
2023-01-18T06:37:45.197Z,-2.78
2023-01-18T06:42:48.642Z,-2.82
2023-01-18T06:47:54.925Z,-2.83
2023-01-18T06:53:01.299Z,-2.81
2023-01-18T06:58:07.640Z,-2.77
2023-01-18T07:03:11.818Z,-2.78
2023-01-18T07:08:13.642Z,-2.81
2023-01-18T07:13:18.088Z,-2.80
2023-01-18T07:18:19.831Z,-2.78
2023-01-18T07:23:23.681Z,-2.80
2023-01-18T07:28:27.949Z,-2.82
2023-01-18T07:33:34.873Z,-2.82
2023-01-18T07:38:38.013Z,-2.84
2023-01-18T07:43:40.435Z,-2.54
2023-01-18T07:48:44.796Z,-2.56
2023-01-18T07:53:48.835Z,-2.61
2023-01-18T07:58:55.623Z,-2.62
2023-01-18T08:03:57.661Z,-2.61
2023-01-18T08:08:59.683Z,-2.59
2023-01-18T08:14:01.592Z,-2.56
2023-01-18T08:19:07.567Z,-2.48
2023-01-18T08:24:14.085Z,-2.42
2023-01-18T08:29:15.863Z,-2.35
2023-01-18T08:34:22.701Z,-2.26
2023-01-18T08:39:24.446Z,-2.15
2023-01-18T08:44:31.373Z,-2.05
2023-01-18T08:49:37.682Z,-1.93
2023-01-18T08:54:44.246Z,-1.79
2023-01-18T08:59:48.992Z,-1.67
2023-01-18T09:04:53.550Z,-1.58
2023-01-18T09:10:01.669Z,-1.46
2023-01-18T09:15:06.591Z,-1.31
2023-01-18T09:20:12.134Z,-1.18
2023-01-18T09:25:18.484Z,-1.11
2023-01-18T09:30:20.237Z,-0.96
2023-01-18T09:35:22.007Z,-0.86
2023-01-18T09:40:31.556Z,-0.74
2023-01-18T09:45:34.382Z,-0.54
2023-01-18T09:50:42.858Z,-0.45
2023-01-18T09:55:49.398Z,-0.33
2023-01-18T10:00:56.075Z,-0.19
2023-01-18T10:06:08.895Z,-0.07
2023-01-18T10:11:48.192Z,0.07
2023-01-18T10:17:02.897Z,0.25
2023-01-18T10:22:19.715Z,0.39
2023-01-18T10:27:31.967Z,0.52
2023-01-18T10:32:39.730Z,0.62
2023-01-18T10:37:46.634Z,0.70
2023-01-18T10:42:57.566Z,0.82
2023-01-18T10:48:14.049Z,0.96
2023-01-18T10:53:34.011Z,1.10
2023-01-18T10:58:59.512Z,1.24
2023-01-18T11:04:07.773Z,1.32
2023-01-18T11:09:41.777Z,1.37
2023-01-18T11:14:45.830Z,1.50
2023-01-18T11:20:06.056Z,1.57
2023-01-18T11:25:17.275Z,1.73
2023-01-18T11:30:27.229Z,1.93
2023-01-18T11:35:33.123Z,2.16
2023-01-18T11:40:39.118Z,2.54
2023-01-18T11:45:59.859Z,3.12
2023-01-18T11:51:40.268Z,3.66
2023-01-18T11:56:47.068Z,4.12
2023-01-18T12:02:09.542Z,4.46
2023-01-18T12:07:48.604Z,4.58
2023-01-18T12:13:16.807Z,4.91
2023-01-18T12:18:54.046Z,5.25
2023-01-18T12:23:58.796Z,5.22
2023-01-18T12:29:16.898Z,5.58
2023-01-18T12:34:37.888Z,5.76
2023-01-18T12:40:17.424Z,6.06
2023-01-18T12:45:32.863Z,5.79
2023-01-18T12:50:38.863Z,5.87
2023-01-18T12:55:44.721Z,6.03
2023-01-18T13:00:53.755Z,6.10
2023-01-18T13:05:58.608Z,6.36
2023-01-18T13:11:21.939Z,6.46
2023-01-18T13:16:42.495Z,6.79
2023-01-18T13:22:05.606Z,6.94
2023-01-18T13:27:18.577Z,6.72
2023-01-18T13:32:31.356Z,6.82
2023-01-18T13:37:49.400Z,6.68
2023-01-18T13:42:54.011Z,6.65
2023-01-18T13:48:05.220Z,6.96
2023-01-18T13:53:15.475Z,6.97
2023-01-18T13:58:25.607Z,7.17
2023-01-18T14:03:39.282Z,7.00
2023-01-18T14:08:50.322Z,6.92
2023-01-18T14:13:55.060Z,7.09
2023-01-18T14:19:01.005Z,6.73
2023-01-18T14:24:24.345Z,6.68
2023-01-18T14:29:49.808Z,6.52
2023-01-18T14:35:04.980Z,5.91
2023-01-18T14:40:15.077Z,6.06
2023-01-18T14:45:27.456Z,5.15
2023-01-18T14:50:33.422Z,4.55
2023-01-18T14:55:40.453Z,4.10
2023-01-18T15:00:54.686Z,3.78
2023-01-18T15:06:12.676Z,3.50
2023-01-18T15:11:17.600Z,3.25
2023-01-18T15:16:22.603Z,3.08
2023-01-18T15:21:29.009Z,2.92
2023-01-18T15:26:43.291Z,2.73
2023-01-18T15:32:11.079Z,2.59
2023-01-18T15:37:33.716Z,2.92
2023-01-18T15:42:47.502Z,2.55
2023-01-18T15:47:56.242Z,2.39
2023-01-18T15:53:06.729Z,2.24
2023-01-18T15:58:34.285Z,2.12
2023-01-18T16:03:39.140Z,1.97
2023-01-18T16:09:14.192Z,1.86
2023-01-18T16:14:28.258Z,1.71
2023-01-18T16:19:36.019Z,1.69
2023-01-18T16:24:53.501Z,1.59
2023-01-18T16:30:14.682Z,1.47
2023-01-18T16:35:23.779Z,1.42
2023-01-18T16:40:26.297Z,1.40
2023-01-18T16:45:31.946Z,1.42
2023-01-18T16:50:34.137Z,1.42
2023-01-18T16:55:39.216Z,1.41
2023-01-18T17:01:01.074Z,1.39
2023-01-18T17:06:04.225Z,1.43
2023-01-18T17:11:07.504Z,1.48
2023-01-18T17:16:15.897Z,1.52
2023-01-18T17:21:19.791Z,1.52
2023-01-18T17:26:23.928Z,1.74
2023-01-18T17:31:26.186Z,1.81
2023-01-18T17:36:28.076Z,1.78
2023-01-18T17:41:30.051Z,1.72
2023-01-18T17:46:34.071Z,1.67
2023-01-18T17:51:38.571Z,1.70
2023-01-18T17:56:42.573Z,1.72
2023-01-18T18:01:46.733Z,1.80
2023-01-18T18:06:54.448Z,1.84
2023-01-18T18:11:57.552Z,2.18
2023-01-18T18:16:59.314Z,2.00
2023-01-18T18:22:04.063Z,1.78
2023-01-18T18:27:14.870Z,1.66
2023-01-18T18:32:19.008Z,1.61
2023-01-18T18:37:21.029Z,1.58
2023-01-18T18:42:26.143Z,1.51
2023-01-18T18:47:27.823Z,1.48
2023-01-18T18:52:29.525Z,1.47
2023-01-18T18:57:31.419Z,1.47
2023-01-18T19:02:37.006Z,1.50
2023-01-18T19:07:42.537Z,1.55
2023-01-18T19:12:46.582Z,1.63
2023-01-18T19:17:51.375Z,1.69
2023-01-18T19:22:58.794Z,1.77
2023-01-18T19:28:04.063Z,1.83
2023-01-18T19:33:07.214Z,1.85
2023-01-18T19:38:10.671Z,1.88
2023-01-18T19:43:12.405Z,1.92
2023-01-18T19:48:15.095Z,1.94
2023-01-18T19:53:17.906Z,1.88
2023-01-18T19:58:22.695Z,1.82
2023-01-18T20:03:24.475Z,1.82
2023-01-18T20:08:26.242Z,1.83
2023-01-18T20:13:30.161Z,1.83
2023-01-18T20:18:38.461Z,1.81
2023-01-18T20:23:45.668Z,1.72
2023-01-18T20:28:50.956Z,1.63
2023-01-18T20:33:55.117Z,1.59
2023-01-18T20:38:57.299Z,1.61
2023-01-18T20:43:59.954Z,1.62
2023-01-18T20:49:07.473Z,1.64
2023-01-18T20:54:13.735Z,1.63
2023-01-18T20:59:17.650Z,1.61
2023-01-18T21:04:20.673Z,1.73
2023-01-18T21:09:23.598Z,1.92
2023-01-18T21:14:28.798Z,1.79
2023-01-18T21:19:33.099Z,1.74
2023-01-18T21:24:39.704Z,1.75
2023-01-18T21:29:44.616Z,1.74
2023-01-18T21:34:49.404Z,1.76
2023-01-18T21:40:00.656Z,1.79
2023-01-18T21:45:27.975Z,1.78
2023-01-18T21:50:48.360Z,1.83
2023-01-18T21:55:52.084Z,1.85
2023-01-18T22:01:00.355Z,1.87
2023-01-18T22:06:12.141Z,1.85
2023-01-18T22:11:18.910Z,1.92
2023-01-18T22:16:27.912Z,1.94
2023-01-18T22:21:32.618Z,1.95
2023-01-18T22:26:40.173Z,1.96
2023-01-18T22:31:46.975Z,2.01
2023-01-18T22:36:49.222Z,2.02
2023-01-18T22:41:53.224Z,2.08
2023-01-18T22:46:59.353Z,2.12
2023-01-18T22:52:05.239Z,2.08
2023-01-18T22:57:06.950Z,2.03
2023-01-18T23:02:13.842Z,2.05
2023-01-18T23:07:18.276Z,2.04
2023-01-18T23:12:22.305Z,2.04
2023-01-18T23:17:38.862Z,2.08
2023-01-18T23:22:40.688Z,2.14
2023-01-18T23:27:48.209Z,2.19
2023-01-18T23:32:54.559Z,2.17
2023-01-18T23:38:00.979Z,2.18
2023-01-18T23:43:21.588Z,2.18
2023-01-18T23:48:43.435Z,2.20
2023-01-18T23:54:03.693Z,2.24
2023-01-18T23:59:05.467Z,2.24
